Time;durP1;ratioP1;P1;durP2;ratioP2;P2;SDS_P1;SDS_P2;PMS_P1;PMS_P2;Temp;Humidity;BMP_temperature;BMP_pressure;BME280_temperature;BME280_humidity;BME280_pressure;Samples;Min_cycle;Max_cycle;Signal;HPM_P1;HPM_P2
2021/05/14 00:00:41;;;;;;;17.02;13.55;;;;;;;13.54;67.22;100591.38;4953917;29;20051;-56
2021/05/14 00:03:12;;;;;;;16.20;13.10;;;;;;;13.53;67.96;100597.94;4954401;29;20414;-55
2021/05/14 00:05:39;;;;;;;18.27;13.63;;;;;;;13.51;67.47;100600.13;4954565;28;20051;-55
2021/05/14 00:08:08;;;;;;;17.23;13.65;;;;;;;13.50;67.63;100598.53;4955082;28;20410;-54
2021/05/14 00:10:38;;;;;;;19.35;14.05;;;;;;;13.48;68.15;100603.47;4953842;29;20035;-56
2021/05/14 00:13:07;;;;;;;17.15;14.02;;;;;;;13.51;68.15;100604.81;4955095;28;20035;-56
2021/05/14 00:15:35;;;;;;;17.55;13.90;;;;;;;13.53;67.64;100608.06;4954885;28;20402;-56
2021/05/14 00:18:03;;;;;;;20.13;14.68;;;;;;;13.54;67.54;100605.06;4955073;28;20043;-55
2021/05/14 00:20:31;;;;;;;21.15;15.02;;;;;;;13.54;68.17;100610.53;4954753;28;20078;-55
2021/05/14 00:22:59;;;;;;;17.08;13.63;;;;;;;13.55;67.79;100603.94;4955048;28;20048;-57
2021/05/14 00:25:27;;;;;;;17.92;13.90;;;;;;;13.52;67.84;100607.25;4969720;28;20054;-56
2021/05/14 00:27:54;;;;;;;19.20;15.50;;;;;;;13.50;67.54;100605.94;4953437;29;20098;-55
2021/05/14 00:30:22;;;;;;;19.13;15.43;;;;;;;13.45;68.03;100604.06;4969602;28;20043;-55
2021/05/14 00:32:50;;;;;;;19.48;14.63;;;;;;;13.43;67.85;100609.81;4955029;28;20515;-56
2021/05/14 00:35:17;;;;;;;19.58;15.95;;;;;;;13.43;68.25;100609.00;4954256;28;20133;-54
2021/05/14 00:37:45;;;;;;;18.83;15.38;;;;;;;13.45;67.85;100608.72;4954532;28;20074;-51
2021/05/14 00:40:13;;;;;;;18.92;15.45;;;;;;;13.45;68.50;100612.28;4954253;28;20050;-56
2021/05/14 00:42:41;;;;;;;20.23;16.27;;;;;;;13.45;68.10;100606.00;4954486;28;20058;-55
2021/05/14 00:45:09;;;;;;;20.13;16.63;;;;;;;13.42;68.35;100608.19;4955053;28;20039;-56
2021/05/14 00:47:37;;;;;;;19.90;16.60;;;;;;;13.39;68.16;100607.97;4954681;28;20062;-56
2021/05/14 00:50:06;;;;;;;20.83;16.15;;;;;;;13.37;68.20;100610.16;4953554;28;20106;-56
2021/05/14 00:52:33;;;;;;;22.35;16.42;;;;;;;13.36;68.20;100608.56;4954868;28;20043;-55
2021/05/14 00:55:01;;;;;;;21.35;17.23;;;;;;;13.37;68.43;100610.16;4954964;28;20125;-55
2021/05/14 00:57:29;;;;;;;22.95;17.10;;;;;;;13.35;68.49;100606.94;4954595;28;20465;-54
2021/05/14 00:59:56;;;;;;;24.58;17.10;;;;;;;13.35;68.02;100604.19;4953031;29;20554;-57
2021/05/14 01:02:24;;;;;;;22.52;17.17;;;;;;;13.35;67.92;100609.66;4953544;28;20048;-55
2021/05/14 01:04:52;;;;;;;20.20;16.08;;;;;;;13.32;67.98;100605.56;4954433;28;20122;-55
2021/05/14 01:07:19;;;;;;;21.70;16.98;;;;;;;13.30;68.82;100604.22;4954418;28;20047;-56
2021/05/14 01:09:48;;;;;;;22.20;16.98;;;;;;;13.29;68.77;100602.63;4946482;28;20134;-53
2021/05/14 01:12:15;;;;;;;20.45;16.30;;;;;;;13.28;68.43;100603.72;4951729;29;20554;-53
2021/05/14 01:14:43;;;;;;;19.27;16.20;;;;;;;13.28;68.63;100601.81;4953958;28;20098;-55
2021/05/14 01:17:12;;;;;;;21.88;16.83;;;;;;;13.28;68.30;100598.25;4953581;29;20123;-56
2021/05/14 01:19:39;;;;;;;21.63;16.80;;;;;;;13.30;68.39;100605.06;4953742;28;20055;-53
2021/05/14 01:22:07;;;;;;;20.90;17.33;;;;;;;13.31;68.37;100598.47;4953679;28;20106;-55
2021/05/14 01:24:35;;;;;;;20.27;16.45;;;;;;;13.32;68.48;100607.50;4954303;28;20039;-57
2021/05/14 01:27:04;;;;;;;19.65;16.60;;;;;;;13.33;68.74;100614.63;4953642;28;20047;-55
2021/05/14 01:29:31;;;;;;;21.17;16.70;;;;;;;13.30;68.67;100604.22;4954204;28;20098;-54
2021/05/14 01:32:00;;;;;;;22.95;17.65;;;;;;;13.28;68.97;100606.47;4953459;28;20055;-54
2021/05/14 01:34:28;;;;;;;21.40;16.30;;;;;;;13.25;68.63;100607.81;4953871;29;20114;-52
2021/05/14 01:36:55;;;;;;;21.10;17.50;;;;;;;13.22;68.81;100602.94;4954032;28;20051;-54
2021/05/14 01:39:24;;;;;;;20.75;16.15;;;;;;;13.19;69.25;100601.59;4968926;28;20164;-55
2021/05/14 01:41:52;;;;;;;20.23;16.88;;;;;;;13.17;69.08;100595.59;4953582;29;20071;-54
2021/05/14 01:44:21;;;;;;;21.70;16.67;;;;;;;13.14;69.07;100593.44;4953426;28;20046;-50
2021/05/14 01:46:49;;;;;;;20.58;16.63;;;;;;;13.12;69.37;100590.19;4953689;28;20533;-57
2021/05/14 01:49:18;;;;;;;19.27;16.42;;;;;;;13.11;69.40;100591.28;4953713;28;20043;-55
2021/05/14 01:51:46;;;;;;;20.25;15.35;;;;;;;13.10;69.49;100589.66;4953778;28;20051;-56
2021/05/14 01:54:14;;;;;;;20.55;17.00;;;;;;;13.10;69.25;100589.66;4953749;29;20082;-55
2021/05/14 01:56:49;;;;;;;20.27;16.08;;;;;;;13.09;68.88;100587.22;4953614;28;20098;-53
2021/05/14 01:59:17;;;;;;;21.13;17.05;;;;;;;13.05;69.24;100591.63;4953474;28;20106;-55
2021/05/14 02:01:45;;;;;;;21.20;17.48;;;;;;;13.00;69.13;100587.03;4955733;28;20038;-54
2021/05/14 02:04:13;;;;;;;20.67;16.08;;;;;;;12.98;69.17;100586.50;4957617;28;20063;-55
2021/05/14 02:06:40;;;;;;;19.25;15.90;;;;;;;12.98;69.82;100591.97;4957529;28;20047;-55
2021/05/14 02:09:08;;;;;;;19.17;16.17;;;;;;;12.96;69.71;100583.25;4956391;29;20047;-55
2021/05/14 02:11:36;;;;;;;20.60;16.38;;;;;;;12.95;69.48;100584.34;4956799;28;20035;-54
2021/05/14 02:14:04;;;;;;;22.10;16.95;;;;;;;12.92;69.61;100582.22;4957168;28;20047;-55
2021/05/14 02:16:31;;;;;;;21.45;16.08;;;;;;;12.91;69.55;100586.03;4956629;28;20047;-56
2021/05/14 02:18:59;;;;;;;18.35;15.32;;;;;;;12.89;69.98;100580.03;4956842;29;20046;-56
2021/05/14 02:21:27;;;;;;;21.65;15.25;;;;;;;12.88;69.72;100581.16;4957107;28;20051;-56
2021/05/14 02:23:55;;;;;;;19.73;15.93;;;;;;;12.88;69.56;100586.63;4956868;28;20047;-54
2021/05/14 02:26:22;;;;;;;22.45;15.57;;;;;;;12.88;69.64;100587.44;4956880;29;20074;-56
2021/05/14 02:28:50;;;;;;;17.85;14.45;;;;;;;12.88;69.83;100581.97;4956909;28;20043;-56
2021/05/14 02:31:18;;;;;;;18.95;15.82;;;;;;;12.87;69.99;100580.34;4956694;28;20078;-53
2021/05/14 02:33:45;;;;;;;19.17;15.43;;;;;;;12.87;69.64;100590.44;4956740;29;20040;-55
2021/05/14 02:36:13;;;;;;;20.00;15.30;;;;;;;12.85;69.34;100587.19;4956828;28;20103;-52
2021/05/14 02:38:40;;;;;;;23.10;16.08;;;;;;;12.82;70.20;100585.03;4956852;28;20482;-55
2021/05/14 02:41:11;;;;;;;19.08;15.50;;;;;;;12.80;69.64;100588.06;4956506;28;20055;-55
2021/05/14 02:43:39;;;;;;;20.20;16.05;;;;;;;12.76;69.95;100582.34;4956218;29;20051;-55
2021/05/14 02:46:08;;;;;;;19.55;15.10;;;;;;;12.73;69.65;100590.31;4956510;28;20051;-56
2021/05/14 02:48:36;;;;;;;19.92;15.35;;;;;;;12.70;70.13;100588.97;4956626;28;20094;-53
2021/05/14 02:51:06;;;;;;;20.00;15.07;;;;;;;12.69;70.51;100598.28;4956797;28;20044;-55
2021/05/14 02:53:34;;;;;;;21.67;16.10;;;;;;;12.66;70.09;100585.19;4956518;28;20042;-54
2021/05/14 02:56:01;;;;;;;18.85;15.25;;;;;;;12.66;70.71;100590.66;4956377;29;20086;-56
2021/05/14 02:58:29;;;;;;;22.05;16.23;;;;;;;12.67;69.92;100591.47;4956253;28;20050;-55
2021/05/14 03:00:56;;;;;;;21.38;15.23;;;;;;;12.69;69.94;100590.06;4956057;28;20122;-54
2021/05/14 03:03:24;;;;;;;18.20;15.55;;;;;;;12.70;70.32;100596.34;4956559;28;20762;-53
2021/05/14 03:05:52;;;;;;;18.00;15.10;;;;;;;12.70;70.38;100588.97;4956150;28;20589;-54
2021/05/14 03:08:20;;;;;;;21.02;16.08;;;;;;;12.68;70.04;100585.72;4954948;28;20055;-55
2021/05/14 03:10:47;;;;;;;19.35;16.05;;;;;;;12.65;69.39;100589.03;4956374;28;20047;-55
2021/05/14 03:13:15;;;;;;;19.35;15.63;;;;;;;12.64;70.45;100589.31;4954642;28;20876;-56
2021/05/14 03:15:43;;;;;;;18.02;15.05;;;;;;;12.61;69.64;100587.16;4956103;28;20043;-51
2021/05/14 03:18:11;;;;;;;20.33;16.17;;;;;;;12.59;70.23;100590.16;4956078;28;20066;-55
2021/05/14 03:20:39;;;;;;;18.30;15.90;;;;;;;12.57;70.20;100586.91;4956019;28;20043;-53
2021/05/14 03:23:06;;;;;;;21.52;16.40;;;;;;;12.53;70.32;100594.03;4955705;29;20090;-55
2021/05/14 03:25:34;;;;;;;19.30;16.10;;;;;;;12.50;70.12;100591.88;4956297;29;20043;-55
2021/05/14 03:28:02;;;;;;;21.15;15.75;;;;;;;12.48;69.85;100591.34;4955261;28;20090;-55
2021/05/14 03:30:29;;;;;;;19.33;15.32;;;;;;;12.47;70.43;100592.47;4955980;28;20438;-56
2021/05/14 03:32:57;;;;;;;18.70;14.68;;;;;;;12.47;70.86;100598.75;4955962;28;20082;-55
2021/05/14 03:35:25;;;;;;;21.00;16.35;;;;;;;12.48;70.51;100594.09;4955948;28;20502;-55
2021/05/14 03:37:52;;;;;;;19.45;15.75;;;;;;;12.48;70.01;100591.34;4955846;28;20490;-56
2021/05/14 03:42:57;;;;;;;21.63;16.25;;;;;;;12.45;70.00;100589.19;4955425;28;20039;-55
2021/05/14 03:45:25;;;;;;;18.17;14.65;;;;;;;12.41;69.85;100593.59;4970753;28;20043;-54
2021/05/14 03:47:59;;;;;;;18.08;14.85;;;;;;;12.41;69.78;100599.06;4955797;28;20047;-55
2021/05/14 03:50:33;;;;;;;18.73;15.30;;;;;;;12.38;70.63;100586.78;4955619;28;20055;-54
2021/05/14 03:53:02;;;;;;;18.58;15.07;;;;;;;12.40;70.15;100602.91;4955422;29;20110;-56
2021/05/14 03:55:30;;;;;;;19.73;15.75;;;;;;;12.40;70.32;100591.97;4955668;28;20058;-55
2021/05/14 03:57:57;;;;;;;20.05;16.05;;;;;;;12.40;69.69;100595.53;4954885;28;20036;-56
2021/05/14 04:00:25;;;;;;;20.08;15.90;;;;;;;12.40;70.08;100602.91;4955284;28;20074;-54
2021/05/14 04:02:54;;;;;;;20.58;15.63;;;;;;;12.36;70.28;100598.03;4955147;29;20558;-55
2021/05/14 04:05:23;;;;;;;18.77;15.70;;;;;;;12.33;70.63;100595.84;4955423;28;20806;-56
2021/05/14 04:07:51;;;;;;;19.40;15.68;;;;;;;12.32;70.75;100596.94;4954984;28;20043;-55
2021/05/14 04:15:41;;;;;;;18.70;15.43;;;;;;;12.27;70.12;100599.72;4954772;28;20498;-53
2021/05/14 04:18:09;;;;;;;20.00;16.23;;;;;;;12.24;70.25;100600.31;4955081;28;20039;-55
2021/05/14 04:20:37;;;;;;;20.38;16.00;;;;;;;12.21;70.23;100603.59;4955098;28;20564;-55
2021/05/14 04:23:05;;;;;;;18.77;15.30;;;;;;;12.19;69.96;100604.97;4954907;28;20058;-57
2021/05/14 04:25:37;;;;;;;19.17;15.48;;;;;;;12.16;70.37;100603.63;4954596;29;20043;-53
2021/05/14 04:28:05;;;;;;;18.40;14.95;;;;;;;12.16;70.07;100595.44;4954707;28;20094;-55
2021/05/14 04:30:33;;;;;;;20.13;15.57;;;;;;;12.15;70.49;100602.00;4955119;29;20098;-55
2021/05/14 04:33:00;;;;;;;19.17;15.68;;;;;;;12.15;70.57;100604.72;4954917;28;20043;-56
2021/05/14 04:35:28;;;;;;;19.33;15.48;;;;;;;12.13;69.79;100605.00;4954496;28;20553;-55
2021/05/14 04:37:56;;;;;;;19.00;15.82;;;;;;;12.11;70.03;100606.38;4954577;28;20126;-58
2021/05/14 04:40:23;;;;;;;19.60;15.73;;;;;;;12.08;69.69;100606.97;4954200;28;20043;-56
2021/05/14 04:42:51;;;;;;;17.73;14.93;;;;;;;12.06;70.01;100609.16;4954403;28;20102;-54
2021/05/14 04:45:19;;;;;;;20.25;16.58;;;;;;;12.05;69.65;100611.09;4954680;28;20051;-55
2021/05/14 04:47:46;;;;;;;20.65;15.63;;;;;;;12.04;70.53;100617.63;4954603;28;20498;-53
2021/05/14 04:50:17;;;;;;;19.45;15.55;;;;;;;12.03;70.04;100610.53;4954554;28;20050;-54
2021/05/14 04:52:46;;;;;;;19.73;15.73;;;;;;;12.02;70.53;100610.81;4954683;28;20066;-52
2021/05/14 04:55:15;;;;;;;18.85;15.07;;;;;;;12.02;70.18;100608.91;4953952;28;20086;-54
2021/05/14 04:57:43;;;;;;;19.52;15.38;;;;;;;12.03;69.60;100615.19;4954499;28;20046;-54
2021/05/14 05:00:11;;;;;;;19.00;15.23;;;;;;;12.04;70.59;100614.91;4954159;28;20387;-54
2021/05/14 05:02:39;;;;;;;20.50;15.93;;;;;;;12.02;70.19;100605.34;4954213;29;20106;-55
2021/05/14 05:05:07;;;;;;;23.38;15.23;;;;;;;12.07;69.84;100610.78;4954268;28;20055;-55
2021/05/14 05:07:36;;;;;;;22.08;15.90;;;;;;;12.12;70.23;100613.47;4954146;29;20510;-53
2021/05/14 05:10:04;;;;;;;20.83;15.93;;;;;;;12.15;69.91;100607.47;4952414;28;20055;-55
2021/05/14 05:12:31;;;;;;;21.88;16.88;;;;;;;12.14;69.62;100616.75;4954238;28;20102;-54
2021/05/14 05:14:59;;;;;;;21.05;16.60;;;;;;;12.13;69.96;100621.41;4954366;29;20533;-53
2021/05/14 05:17:26;;;;;;;18.90;14.63;;;;;;;12.12;69.83;100619.78;4969099;28;20047;-53
2021/05/14 05:19:55;;;;;;;19.48;15.27;;;;;;;12.12;70.44;100624.41;4953750;28;20043;-54
2021/05/14 05:22:24;;;;;;;20.85;15.48;;;;;;;12.12;69.90;100629.84;4953873;28;20051;-56
2021/05/14 05:24:51;;;;;;;21.40;16.63;;;;;;;12.14;69.68;100627.66;4953238;28;20039;-56
2021/05/14 05:27:19;;;;;;;23.23;17.58;;;;;;;12.15;70.24;100626.59;4953882;28;20054;-55
2021/05/14 05:29:46;;;;;;;21.45;17.33;;;;;;;12.15;69.56;100624.66;4953639;28;20051;-54
2021/05/14 05:32:14;;;;;;;25.40;17.42;;;;;;;12.15;70.26;100621.94;4953715;28;20039;-54
2021/05/14 05:34:42;;;;;;;22.35;18.00;;;;;;;12.15;70.31;100623.84;4954279;28;20047;-55
2021/05/14 05:37:10;;;;;;;22.38;17.88;;;;;;;12.15;70.22;100623.84;4957120;28;20043;-56
2021/05/14 05:39:38;;;;;;;22.52;16.73;;;;;;;12.17;70.55;100624.41;4956884;28;20047;-56
2021/05/14 05:42:05;;;;;;;28.15;23.15;;;;;;;12.12;70.08;100627.13;4957082;28;20062;-56
2021/05/14 05:44:33;;;;;;;31.15;23.27;;;;;;;12.06;70.19;100620.91;4957928;29;20557;-52
2021/05/14 05:47:01;;;;;;;29.40;22.88;;;;;;;12.02;70.96;100627.19;4957465;28;20043;-53
2021/05/14 05:49:28;;;;;;;30.55;24.50;;;;;;;12.00;70.59;100624.78;4957441;28;20035;-53
2021/05/14 05:51:56;;;;;;;27.83;23.52;;;;;;;12.02;71.03;100630.75;4957194;28;20047;-52
2021/05/14 05:54:25;;;;;;;30.60;24.42;;;;;;;12.04;71.17;100627.75;4957621;28;20071;-57
2021/05/14 05:56:57;;;;;;;28.52;17.88;;;;;;;12.09;70.95;100631.25;4958529;28;20058;-56
2021/05/14 05:59:24;;;;;;;22.00;17.38;;;;;;;12.17;70.94;100627.13;4955572;29;20069;-54
2021/05/14 06:01:52;;;;;;;21.33;16.83;;;;;;;12.24;70.81;100634.97;4958589;28;20055;-56
2021/05/14 06:04:21;;;;;;;27.88;17.48;;;;;;;12.29;70.80;100630.31;4261244;28;10000719;-56
2021/05/14 06:06:48;;;;;;;23.40;17.20;;;;;;;12.35;70.67;100634.63;4955006;28;20126;-59
2021/05/14 06:09:16;;;;;;;23.77;18.52;;;;;;;12.39;70.27;100643.09;4955194;28;20043;-53
2021/05/14 06:11:44;;;;;;;21.70;17.13;;;;;;;12.41;70.59;100648.25;4955288;28;20059;-56
2021/05/14 06:14:11;;;;;;;24.30;18.60;;;;;;;12.41;70.67;100648.25;4954504;28;20043;-55
2021/05/14 06:16:39;;;;;;;26.30;18.10;;;;;;;12.39;70.49;100640.34;4955461;28;20039;-62
2021/05/14 06:21:48;;;;;;;26.60;18.17;;;;;;;12.39;70.56;100650.44;4954484;28;20040;-56
2021/05/14 06:24:17;;;;;;;23.27;17.15;;;;;;;12.39;70.37;100653.16;4954849;28;20047;-56
2021/05/14 06:26:46;;;;;;;24.52;18.13;;;;;;;12.42;71.06;100649.88;4954529;28;20047;-54
2021/05/14 06:29:14;;;;;;;23.55;17.63;;;;;;;12.45;70.88;100646.59;4954755;29;20091;-56
2021/05/14 06:31:42;;;;;;;26.52;18.67;;;;;;;12.47;70.38;100658.84;4954555;29;20047;-55
2021/05/14 06:34:10;;;;;;;28.02;19.63;;;;;;;12.47;70.79;100658.03;4954538;28;20054;-53
2021/05/14 06:36:38;;;;;;;24.13;18.52;;;;;;;12.49;70.08;100664.06;4954266;28;20132;-56
2021/05/14 06:39:06;;;;;;;24.25;17.83;;;;;;;12.51;70.51;100654.47;4953845;28;20047;-53
2021/05/14 06:41:33;;;;;;;27.42;21.02;;;;;;;12.54;70.63;100664.81;4954338;28;20055;-52
2021/05/14 06:44:01;;;;;;;26.48;20.63;;;;;;;12.53;70.91;100660.47;4954458;28;20082;-55
2021/05/14 06:46:28;;;;;;;29.85;20.85;;;;;;;12.51;71.52;100664.59;4953553;28;20490;-54
2021/05/14 06:48:56;;;;;;;25.55;18.77;;;;;;;12.52;71.79;100667.00;4953268;29;20715;-54
2021/05/14 06:51:24;;;;;;;28.90;20.23;;;;;;;12.54;71.42;100666.75;4943085;29;20387;-53
2021/05/14 06:53:56;;;;;;;25.33;17.88;;;;;;;12.59;71.00;100672.16;4954860;28;20495;-54
2021/05/14 06:56:24;;;;;;;24.83;18.00;;;;;;;12.62;71.28;100657.91;4954368;28;20095;-52
2021/05/14 06:58:54;;;;;;;30.63;21.40;;;;;;;12.65;71.00;100654.63;4953956;28;20417;-54
2021/05/14 07:01:22;;;;;;;27.90;19.25;;;;;;;12.65;70.99;100662.84;4954201;28;20066;-58
2021/05/14 07:03:51;;;;;;;23.88;16.40;;;;;;;12.68;70.56;100664.19;4953313;28;20059;-54
2021/05/14 07:06:19;;;;;;;23.98;17.15;;;;;;;12.75;70.07;100664.66;4953531;28;21737;-54
2021/05/14 07:08:48;;;;;;;26.20;18.63;;;;;;;12.77;70.85;100667.91;4953965;28;20043;-55
2021/05/14 07:11:16;;;;;;;27.33;19.40;;;;;;;12.78;70.39;100670.38;4953582;28;20114;-54
2021/05/14 07:13:44;;;;;;;22.20;16.08;;;;;;;12.84;70.33;100667.59;4953743;28;20504;-54
2021/05/14 07:16:12;;;;;;;28.27;19.20;;;;;;;12.88;70.70;100668.66;4953020;28;20075;-53
2021/05/14 07:18:41;;;;;;;25.35;17.52;;;;;;;12.90;70.17;100667.25;4954036;28;20047;-56
2021/05/14 07:21:09;;;;;;;23.13;16.75;;;;;;;12.90;69.48;100660.97;4953449;28;20043;-52
2021/05/14 07:23:54;;;;;;;25.60;16.75;;;;;;;12.91;68.77;100668.88;4953661;28;20046;-52
2021/05/14 07:26:21;;;;;;;23.80;15.93;;;;;;;12.94;68.21;100667.47;4953202;28;20506;-52
2021/05/14 07:28:49;;;;;;;21.27;13.45;;;;;;;12.98;67.39;100671.28;4953447;28;20085;-52
2021/05/14 07:31:17;;;;;;;20.55;15.60;;;;;;;12.97;66.16;100672.41;4968595;28;20414;-54
2021/05/14 07:33:47;;;;;;;25.95;15.15;;;;;;;12.98;66.33;100679.50;4953414;28;20520;-54
2021/05/14 07:36:15;;;;;;;26.75;17.10;;;;;;;12.99;66.12;100681.13;4953699;29;20043;-53
2021/05/14 07:38:42;;;;;;;21.27;13.73;;;;;;;12.98;66.07;100674.81;4955693;28;20086;-55
2021/05/14 07:41:11;;;;;;;20.75;14.43;;;;;;;13.00;65.63;100685.50;4955037;28;20063;-54
2021/05/14 07:43:39;;;;;;;20.00;14.60;;;;;;;13.00;64.96;100688.22;4955372;28;20047;-54
2021/05/14 07:46:06;;;;;;;24.33;15.25;;;;;;;13.01;64.94;100684.38;4955435;28;20039;-55
2021/05/14 07:48:34;;;;;;;23.10;14.10;;;;;;;12.99;65.39;100683.88;4955104;28;20070;-54
2021/05/14 07:51:02;;;;;;;24.83;16.05;;;;;;;13.04;65.71;100683.00;4970286;28;20055;-55
2021/05/14 07:53:30;;;;;;;24.38;18.50;;;;;;;13.05;65.01;100690.91;4955214;29;20431;-52
2021/05/14 07:55:58;;;;;;;21.17;13.88;;;;;;;13.06;65.58;100678.03;4954896;28;20039;-55
2021/05/14 07:58:25;;;;;;;25.45;15.07;;;;;;;13.07;65.82;100688.72;4954826;28;20098;-53
2021/05/14 08:00:53;;;;;;;23.48;14.50;;;;;;;13.10;65.04;100687.31;4954949;28;20090;-55
2021/05/14 08:03:21;;;;;;;23.55;14.35;;;;;;;13.11;65.52;100688.97;4954855;28;20157;-55
2021/05/14 08:05:50;;;;;;;22.77;15.30;;;;;;;13.11;64.64;100695.25;4954715;28;20109;-55
2021/05/14 08:08:19;;;;;;;22.80;14.00;;;;;;;13.16;63.75;100686.19;4955083;28;20379;-52
2021/05/14 08:10:48;;;;;;;21.25;16.17;;;;;;;13.19;63.87;100697.34;4954825;28;20063;-55
2021/05/14 08:13:22;;;;;;;22.25;15.00;;;;;;;13.21;64.36;100697.88;4954817;28;20051;-52
2021/05/14 08:15:50;;;;;;;20.92;14.52;;;;;;;13.23;64.44;100689.38;4953501;28;20066;-55
2021/05/14 08:18:19;;;;;;;24.40;16.83;;;;;;;13.29;64.42;100690.97;4954311;28;20043;-50
2021/05/14 08:20:47;;;;;;;21.33;15.60;;;;;;;13.29;62.71;100690.16;4955020;28;20043;-51
2021/05/14 08:23:18;;;;;;;23.42;17.25;;;;;;;13.31;63.43;100699.72;4954312;28;20050;-53
2021/05/14 08:25:47;;;;;;;22.90;17.45;;;;;;;13.32;63.18;100700.53;4954757;28;20055;-54
2021/05/14 08:28:15;;;;;;;22.50;14.32;;;;;;;13.35;61.81;100694.50;4954364;28;20043;-53
2021/05/14 08:30:44;;;;;;;21.83;14.68;;;;;;;13.41;63.19;100696.06;4954835;28;20059;-55
2021/05/14 08:33:12;;;;;;;23.13;16.17;;;;;;;13.45;63.00;100696.31;4953892;28;20536;-54
2021/05/14 08:35:40;;;;;;;21.40;14.52;;;;;;;13.46;62.24;100697.94;4954515;28;20047;-52
2021/05/14 08:38:09;;;;;;;24.83;13.80;;;;;;;13.49;61.09;100689.94;4954138;29;20051;-54
2021/05/14 08:40:38;;;;;;;21.25;14.27;;;;;;;13.49;59.34;100702.81;4954245;28;20102;-53
2021/05/14 08:43:11;;;;;;;18.27;13.32;;;;;;;13.49;60.04;100698.16;4954211;28;20051;-54
2021/05/14 08:45:39;;;;;;;16.02;12.25;;;;;;;13.58;59.99;100698.34;4954118;28;20058;-54
2021/05/14 08:48:11;;;;;;;17.95;12.98;;;;;;;13.61;59.25;100704.06;4954034;28;20078;-52
2021/05/14 08:50:40;;;;;;;20.83;12.55;;;;;;;13.62;59.46;100699.41;4968771;28;20039;-54
2021/05/14 08:53:28;;;;;;;19.75;13.95;;;;;;;13.68;60.53;100700.13;4954457;28;20471;-52
2021/05/14 08:55:57;;;;;;;20.60;15.18;;;;;;;13.72;60.93;100703.94;4952835;28;20054;-55
2021/05/14 08:58:25;;;;;;;23.33;16.75;;;;;;;13.66;60.88;100699.63;4953994;28;20038;-52
2021/05/14 09:00:54;;;;;;;22.63;15.88;;;;;;;13.61;61.74;100698.59;4953619;28;20498;-54
2021/05/14 09:03:26;;;;;;;25.77;15.95;;;;;;;13.66;61.60;100710.56;4953999;28;20470;-50
2021/05/14 09:05:54;;;;;;;22.23;16.20;;;;;;;13.66;60.88;100705.09;4953028;29;20054;-52
2021/05/14 09:08:30;;;;;;;21.88;15.73;;;;;;;13.70;60.96;100706.16;4954259;28;20039;-51
2021/05/14 09:10:58;;;;;;;23.70;16.15;;;;;;;13.72;60.18;100704.75;4953135;28;20577;-53
2021/05/14 09:13:36;;;;;;;20.02;15.73;;;;;;;13.71;60.92;100702.28;4954176;28;20047;-53
2021/05/14 09:16:05;;;;;;;21.88;16.35;;;;;;;13.74;61.13;100702.53;4952204;28;20078;-53
2021/05/14 09:18:32;;;;;;;19.48;15.18;;;;;;;13.75;60.46;100703.34;4953898;28;20047;-54
2021/05/14 09:21:01;;;;;;;20.67;12.93;;;;;;;13.79;61.40;100707.94;4953824;28;20051;-56
2021/05/14 09:23:31;;;;;;;16.85;10.10;;;;;;;13.91;61.47;100707.53;4953602;28;20289;-56
2021/05/14 09:25:59;;;;;;;16.88;10.70;;;;;;;14.11;60.10;100716.59;4954056;28;20110;-53
2021/05/14 09:28:39;;;;;;;16.05;11.25;;;;;;;14.16;58.47;100716.53;4953370;28;20434;-55
2021/05/14 09:31:21;;;;;;;19.05;11.98;;;;;;;14.29;60.00;100713.06;4953212;28;20439;-53
2021/05/14 09:33:56;;;;;;;20.17;10.85;;;;;;;14.51;64.44;100700.69;4953837;28;20071;-52
2021/05/14 09:36:31;;;;;;;21.92;10.23;;;;;;;14.67;60.27;100707.56;4953944;29;20050;-53
2021/05/14 09:39:08;;;;;;;21.45;9.68;;;;;;;14.76;60.68;100705.78;4953414;28;20043;-53
2021/05/14 09:41:38;;;;;;;25.95;14.95;;;;;;;14.61;58.29;100695.06;4953244;28;20062;-53
2021/05/14 09:44:09;;;;;;;20.02;15.32;;;;;;;14.57;58.01;100705.00;4953129;29;20039;-53
2021/05/14 09:46:52;;;;;;;21.58;15.45;;;;;;;14.55;57.90;100707.22;4953386;28;20043;-53
2021/05/14 09:49:22;;;;;;;20.90;16.90;;;;;;;14.47;58.36;100712.22;4953751;28;20039;-55
2021/05/14 09:52:06;;;;;;;20.05;16.23;;;;;;;14.44;58.26;100701.88;4953574;28;20110;-55
2021/05/14 09:54:40;;;;;;;17.40;14.05;;;;;;;14.48;57.74;100705.66;4953507;28;20073;-52
2021/05/14 10:00:16;;;;;;;19.70;15.15;;;;;;;14.40;56.76;100703.56;4952717;28;20047;-54
2021/05/14 10:02:45;;;;;;;17.60;12.90;;;;;;;14.40;57.13;100702.75;4952981;28;20040;-54
2021/05/14 10:05:14;;;;;;;20.08;15.70;;;;;;;14.38;57.55;100705.81;4953494;29;20044;-51
2021/05/14 10:07:42;;;;;;;21.70;16.25;;;;;;;14.37;58.78;100709.66;4952000;29;20058;-52
2021/05/14 10:10:11;;;;;;;21.85;16.70;;;;;;;14.33;58.17;100707.78;4952061;29;20075;-54
2021/05/14 10:12:40;;;;;;;22.27;16.13;;;;;;;14.33;57.63;100714.09;4953034;28;20040;-53
2021/05/14 10:15:09;;;;;;;20.95;16.27;;;;;;;14.26;57.05;100706.25;4952930;28;20050;-51
2021/05/14 10:17:42;;;;;;;39.85;28.65;;;;;;;14.27;56.80;100702.38;4951839;29;20569;-53
2021/05/14 10:20:15;;;;;;;19.70;15.93;;;;;;;14.28;56.79;100703.19;4953284;28;20031;-51
2021/05/14 10:22:44;;;;;;;18.20;13.80;;;;;;;14.29;54.83;100699.38;4954302;28;20059;-51
2021/05/14 10:25:20;;;;;;;46.72;32.42;;;;;;;14.38;55.21;100694.00;4955769;28;20039;-54
2021/05/14 10:27:47;;;;;;;50.72;33.03;;;;;;;14.48;53.54;100683.72;4956634;28;20055;-50
2021/05/14 10:30:15;;;;;;;137.07;86.38;;;;;;;14.64;55.73;100691.72;4956713;28;20039;-53
2021/05/14 10:32:46;;;;;;;29.08;19.83;;;;;;;14.69;54.51;100689.72;4956789;28;20439;-54
2021/05/14 10:35:24;;;;;;;30.20;19.55;;;;;;;14.68;52.26;100687.28;4956630;28;20046;-52
2021/05/14 10:38:08;;;;;;;19.52;14.43;;;;;;;14.71;52.85;100689.41;4956389;28;20044;-52
2021/05/14 10:40:40;;;;;;;35.75;24.02;;;;;;;14.72;52.20;100688.31;4956229;28;20055;-52
2021/05/14 10:43:19;;;;;;;53.25;34.28;;;;;;;14.76;52.47;100683.03;4956076;28;20051;-55
2021/05/14 10:45:49;;;;;;;46.97;30.05;;;;;;;14.75;51.90;100687.72;4955197;28;20043;-53
2021/05/14 10:48:22;;;;;;;51.70;30.65;;;;;;;14.78;51.73;100687.13;4956534;28;20502;-53
2021/05/14 10:50:59;;;;;;;16.95;12.23;;;;;;;14.72;51.71;100682.84;4956186;28;20063;-55
2021/05/14 10:53:53;;;;;;;21.85;15.00;;;;;;;14.70;52.93;100685.88;4956375;28;20050;-55
2021/05/14 10:56:25;;;;;;;21.85;14.98;;;;;;;14.69;53.86;100681.47;4953549;29;20058;-52
2021/05/14 10:59:00;;;;;;;28.25;19.30;;;;;;;14.74;53.87;100686.06;4952980;28;20082;-52
2021/05/14 11:01:38;;;;;;;20.13;14.48;;;;;;;14.76;54.35;100688.53;4956008;28;20103;-52
2021/05/14 11:04:15;;;;;;;27.92;19.27;;;;;;;14.80;54.08;100684.09;4955692;28;20087;-52
2021/05/14 11:06:44;;;;;;;41.85;26.30;;;;;;;14.82;53.11;100677.19;4955919;28;20466;-50
2021/05/14 11:09:13;;;;;;;16.33;13.20;;;;;;;14.86;52.58;100688.34;4955266;28;20031;-52
2021/05/14 11:12:08;;;;;;;16.83;11.05;;;;;;;14.83;49.87;100678.00;4955130;28;20517;-55
2021/05/14 11:14:54;;;;;;;16.20;12.45;;;;;;;14.85;51.30;100687.53;4955432;28;20043;-54
2021/05/14 11:17:22;;;;;;;31.80;20.38;;;;;;;14.88;51.21;100675.16;4955801;28;20120;-54
2021/05/14 11:19:54;;;;;;;17.42;13.18;;;;;;;14.90;52.04;100684.72;4951503;29;20035;-51
2021/05/14 11:22:38;;;;;;;22.73;17.15;;;;;;;14.98;53.14;100677.72;4955641;28;20047;-53
2021/05/14 11:25:14;;;;;;;29.50;18.92;;;;;;;15.07;52.34;100666.88;4955329;28;20399;-53
2021/05/14 11:27:42;;;;;;;19.63;17.53;;;;;;;15.07;54.09;100673.16;4955227;28;20055;-54
2021/05/14 11:30:15;;;;;;;22.27;17.25;;;;;;;15.12;54.52;100677.75;4954099;29;20046;-54
2021/05/14 11:32:47;;;;;;;24.40;18.10;;;;;;;15.17;53.70;100677.66;4955561;28;20047;-54